createdAt,value
2023-03-06T00:00:59.277Z,89.98
2023-03-06T00:03:28.311Z,89.86
2023-03-06T00:05:58.937Z,90.08
2023-03-06T00:08:29.165Z,89.80
2023-03-06T00:10:57.845Z,90.01
2023-03-06T00:13:30.657Z,90.03
2023-03-06T00:16:00.946Z,90.19
2023-03-06T00:18:29.245Z,90.41
2023-03-06T00:20:57.267Z,90.29
2023-03-06T00:23:25.802Z,90.58
2023-03-06T00:25:53.949Z,90.51
2023-03-06T00:28:22.321Z,90.68
2023-03-06T00:30:52.293Z,90.59
2023-03-06T00:33:20.705Z,90.44
2023-03-06T00:35:48.975Z,90.46
2023-03-06T00:38:17.192Z,90.58
2023-03-06T00:40:45.398Z,90.74
2023-03-06T00:43:13.809Z,90.76
2023-03-06T00:45:43.221Z,90.77
2023-03-06T00:48:12.989Z,90.52
2023-03-06T00:50:41.140Z,90.39
2023-03-06T00:53:11.191Z,90.53
2023-03-06T00:55:39.366Z,90.70
2023-03-06T00:58:08.016Z,90.86
2023-03-06T01:00:36.215Z,90.84
2023-03-06T01:03:04.639Z,91.07
2023-03-06T01:05:36.645Z,91.18
2023-03-06T01:08:05.514Z,91.43
2023-03-06T01:10:33.926Z,91.54
2023-03-06T01:13:02.008Z,91.61
2023-03-06T01:15:30.095Z,91.48
2023-03-06T01:17:59.506Z,91.53
2023-03-06T01:20:28.518Z,91.36
2023-03-06T01:22:58.148Z,91.39
2023-03-06T01:25:27.980Z,91.59
2023-03-06T01:27:56.295Z,91.66
2023-03-06T01:30:24.522Z,91.39
2023-03-06T01:32:52.718Z,91.50
2023-03-06T01:35:20.768Z,91.55
2023-03-06T01:37:48.910Z,91.19
2023-03-06T01:40:18.733Z,90.93
2023-03-06T01:42:49.298Z,90.83
2023-03-06T01:45:54.843Z,90.62
2023-03-06T01:48:25.500Z,90.30
2023-03-06T01:50:54.868Z,90.13
2023-03-06T01:53:23.167Z,90.26
2023-03-06T01:55:52.974Z,90.12
2023-03-06T01:58:21.504Z,89.86
2023-03-06T02:00:49.954Z,89.89
2023-03-06T02:03:22.944Z,89.45
2023-03-06T02:05:51.484Z,89.59
2023-03-06T02:08:21.906Z,89.59
2023-03-06T02:10:59.807Z,89.92
2023-03-06T02:13:28.248Z,89.72
2023-03-06T02:15:56.902Z,89.88
2023-03-06T02:18:25.244Z,89.66
2023-03-06T02:20:56.282Z,89.00
2023-03-06T02:23:33.502Z,88.91
2023-03-06T02:26:03.403Z,89.20
2023-03-06T02:28:31.820Z,89.22
2023-03-06T02:31:00.359Z,89.16
2023-03-06T02:33:30.303Z,89.38
2023-03-06T02:36:01.357Z,89.27
2023-03-06T02:38:33.168Z,88.88
2023-03-06T02:41:07.929Z,89.02
2023-03-06T02:43:39.774Z,89.06
2023-03-06T02:46:08.722Z,89.53
2023-03-06T02:48:36.847Z,89.53
2023-03-06T02:51:05.358Z,89.54
2023-03-06T02:53:33.729Z,89.59
2023-03-06T02:56:02.079Z,89.38
2023-03-06T02:58:31.517Z,88.87
2023-03-06T03:01:00.897Z,88.87
2023-03-06T03:03:30.437Z,89.14
2023-03-06T03:05:59.511Z,88.69
2023-03-06T03:08:31.127Z,88.23
2023-03-06T03:11:02.776Z,88.35
2023-03-06T03:13:39.408Z,88.60
2023-03-06T03:16:15.551Z,88.66
2023-03-06T03:18:47.872Z,88.71
2023-03-06T03:21:19.125Z,88.36
2023-03-06T03:23:49.253Z,88.45
2023-03-06T03:26:19.627Z,88.24
2023-03-06T03:29:15.552Z,88.23
2023-03-06T03:31:44.115Z,89.00
2023-03-06T03:34:12.175Z,89.78
2023-03-06T03:36:41.943Z,89.58
2023-03-06T03:39:11.852Z,89.71
2023-03-06T03:41:40.557Z,89.39
2023-03-06T03:44:10.475Z,90.16
2023-03-06T03:46:41.116Z,89.94
2023-03-06T03:49:14.873Z,90.03
2023-03-06T03:51:45.536Z,90.02
2023-03-06T03:54:13.758Z,90.07
2023-03-06T03:56:46.130Z,90.01
2023-03-06T03:59:21.036Z,89.99
2023-03-06T04:02:13.528Z,89.79
2023-03-06T04:04:53.288Z,90.16
2023-03-06T04:07:21.733Z,89.96
2023-03-06T04:09:50.600Z,89.91
2023-03-06T04:12:19.488Z,89.46
2023-03-06T04:14:48.456Z,89.15
2023-03-06T04:17:18.223Z,88.39
2023-03-06T04:19:46.280Z,87.98
2023-03-06T04:22:14.699Z,87.55
2023-03-06T04:24:43.495Z,87.45
2023-03-06T04:27:12.023Z,87.33
2023-03-06T04:29:40.209Z,87.13
2023-03-06T04:32:08.765Z,87.04
2023-03-06T04:34:38.454Z,86.86
2023-03-06T04:37:07.889Z,86.41
2023-03-06T04:39:35.923Z,86.24
2023-03-06T04:42:04.195Z,86.46
2023-03-06T04:44:32.273Z,86.66
2023-03-06T04:47:00.638Z,86.79
2023-03-06T04:49:28.598Z,87.01
2023-03-06T04:51:58.095Z,87.28
2023-03-06T04:54:26.373Z,87.28
2023-03-06T04:56:55.152Z,87.44
2023-03-06T04:59:23.166Z,87.39
2023-03-06T05:01:51.412Z,87.00
2023-03-06T05:04:19.508Z,86.64
2023-03-06T05:06:48.029Z,86.80
2023-03-06T05:09:17.456Z,87.05
2023-03-06T05:11:45.670Z,87.17
2023-03-06T05:14:14.314Z,87.02
2023-03-06T05:16:42.357Z,86.93
2023-03-06T05:19:10.378Z,87.08
2023-03-06T05:21:38.595Z,87.45
2023-03-06T05:24:07.114Z,87.66
2023-03-06T05:26:36.787Z,87.74
2023-03-06T05:29:05.143Z,86.92
2023-03-06T05:31:33.544Z,86.99
2023-03-06T05:34:01.621Z,86.87
2023-03-06T05:36:30.064Z,86.87
2023-03-06T05:38:58.176Z,87.04
2023-03-06T05:41:26.211Z,86.86
2023-03-06T05:43:57.044Z,87.08
2023-03-06T05:46:25.425Z,86.84
2023-03-06T05:48:57.574Z,87.01
2023-03-06T05:51:26.745Z,86.33
2023-03-06T05:53:55.081Z,85.61
2023-03-06T05:56:23.532Z,85.33
2023-03-06T05:58:51.768Z,84.91
2023-03-06T06:01:22.805Z,84.85
2023-03-06T06:03:51.084Z,84.45
2023-03-06T06:06:19.409Z,83.89
2023-03-06T06:08:47.529Z,83.79
2023-03-06T06:11:15.742Z,83.69
2023-03-06T06:13:44.053Z,83.05
2023-03-06T06:16:15.765Z,82.51
2023-03-06T06:18:45.535Z,82.41
2023-03-06T06:21:16.014Z,82.10
2023-03-06T06:23:44.697Z,82.00
2023-03-06T06:26:12.763Z,81.97
2023-03-06T06:28:41.246Z,81.82
2023-03-06T06:31:10.573Z,81.36
2023-03-06T06:33:38.834Z,81.41
2023-03-06T06:36:16.370Z,80.91
2023-03-06T06:38:44.859Z,80.43
2023-03-06T06:44:01.984Z,79.88
2023-03-06T06:47:20.422Z,79.73
2023-03-06T06:49:18.843Z,79.10
2023-03-06T06:51:48.892Z,78.98
2023-03-06T06:54:18.734Z,78.58
2023-03-06T06:56:47.426Z,77.04
2023-03-06T06:59:17.395Z,77.13
2023-03-06T07:01:46.262Z,76.93
2023-03-06T07:04:15.340Z,76.52
2023-03-06T07:06:44.127Z,76.09
2023-03-06T07:09:15.119Z,76.07
2023-03-06T07:11:43.171Z,75.84
2023-03-06T07:14:11.486Z,74.98
2023-03-06T07:16:39.863Z,75.17
2023-03-06T07:19:09.141Z,74.20
2023-03-06T07:21:37.542Z,73.74
2023-03-06T07:24:06.154Z,72.75
2023-03-06T07:26:35.867Z,72.28
2023-03-06T07:29:04.885Z,72.29
2023-03-06T07:31:33.447Z,71.85
2023-03-06T07:34:04.723Z,72.29
2023-03-06T07:36:34.316Z,72.62
2023-03-06T07:39:02.764Z,71.43
2023-03-06T07:41:30.844Z,71.67
2023-03-06T07:44:00.375Z,69.63
2023-03-06T07:46:28.825Z,70.06
2023-03-06T07:48:58.398Z,68.18
2023-03-06T07:51:26.537Z,68.00
2023-03-06T07:53:54.960Z,68.37
2023-03-06T07:56:23.115Z,69.33
2023-03-06T07:58:51.302Z,69.82
2023-03-06T08:01:24.396Z,70.48
2023-03-06T08:03:53.581Z,70.01
2023-03-06T08:06:24.914Z,70.65
2023-03-06T08:08:55.444Z,71.12
2023-03-06T08:11:25.655Z,70.63
2023-03-06T08:13:55.192Z,71.35
2023-03-06T08:16:26.277Z,71.04
2023-03-06T08:18:54.920Z,71.44
2023-03-06T08:21:25.473Z,70.50
2023-03-06T08:23:53.977Z,70.12
2023-03-06T08:26:24.506Z,69.30
2023-03-06T08:28:53.277Z,69.64
2023-03-06T08:31:31.967Z,69.40
2023-03-06T08:34:02.344Z,68.49
2023-03-06T08:36:31.556Z,68.70
2023-03-06T08:39:00.409Z,68.82
2023-03-06T08:41:28.758Z,68.97
2023-03-06T08:43:57.334Z,68.74
2023-03-06T08:46:27.958Z,68.95
2023-03-06T08:48:58.548Z,67.70
2023-03-06T08:51:28.152Z,67.93
2023-03-06T08:53:57.165Z,69.45
2023-03-06T08:56:27.778Z,69.66
2023-03-06T08:58:57.276Z,70.38
2023-03-06T09:01:27.543Z,70.79
2023-03-06T09:03:59.001Z,70.32
2023-03-06T09:06:28.928Z,69.73
2023-03-06T09:08:57.552Z,68.06
2023-03-06T09:11:27.410Z,68.72
2023-03-06T09:13:56.301Z,68.04
2023-03-06T09:16:25.288Z,68.36
2023-03-06T09:18:54.387Z,68.36
2023-03-06T09:21:25.271Z,67.53
2023-03-06T09:23:53.418Z,66.71
2023-03-06T09:26:27.999Z,65.34
2023-03-06T09:29:01.206Z,62.68
2023-03-06T09:31:30.288Z,63.75
2023-03-06T09:33:58.657Z,63.73
2023-03-06T09:36:28.079Z,67.06
2023-03-06T09:38:56.717Z,67.04
2023-03-06T09:41:30.154Z,67.08
2023-03-06T09:44:04.974Z,67.51
2023-03-06T09:46:48.747Z,67.19
2023-03-06T09:49:35.461Z,66.91
2023-03-06T09:52:16.382Z,68.16
2023-03-06T09:54:46.561Z,66.05
2023-03-06T09:57:21.164Z,64.89
2023-03-06T09:59:54.424Z,64.40
2023-03-06T10:02:33.001Z,63.58
2023-03-06T10:05:04.281Z,63.71
2023-03-06T10:07:45.681Z,64.19
2023-03-06T10:10:20.858Z,63.10
2023-03-06T10:12:59.397Z,63.73
2023-03-06T10:15:31.561Z,64.63
2023-03-06T10:17:59.969Z,63.86
2023-03-06T10:20:29.881Z,64.47
2023-03-06T10:23:22.169Z,62.47
2023-03-06T10:25:56.291Z,63.30
2023-03-06T10:28:30.481Z,62.17
2023-03-06T10:31:04.028Z,63.65
2023-03-06T10:33:46.804Z,63.81
2023-03-06T10:36:17.947Z,62.30
2023-03-06T10:38:49.563Z,65.53
2023-03-06T10:41:23.749Z,65.75
2023-03-06T10:44:23.650Z,66.42
2023-03-06T10:46:54.427Z,65.61
2023-03-06T10:49:35.166Z,64.46
2023-03-06T10:52:06.979Z,66.67
2023-03-06T10:54:39.117Z,65.81
2023-03-06T10:57:29.559Z,65.59
2023-03-06T10:59:59.888Z,65.02
2023-03-06T11:02:31.744Z,65.59
2023-03-06T11:05:03.454Z,65.35
2023-03-06T11:07:32.689Z,65.72
2023-03-06T11:10:16.763Z,65.90
2023-03-06T11:12:57.190Z,66.81
2023-03-06T11:15:26.559Z,64.04
2023-03-06T11:18:00.578Z,64.22
2023-03-06T11:20:48.554Z,63.69
2023-03-06T11:23:22.976Z,66.45
2023-03-06T11:25:57.765Z,67.31
2023-03-06T11:28:29.051Z,66.63
2023-03-06T11:31:03.615Z,67.81
2023-03-06T11:33:38.220Z,66.00
2023-03-06T11:36:14.966Z,68.25
2023-03-06T11:38:49.107Z,71.00
2023-03-06T11:41:27.252Z,68.61
2023-03-06T11:44:02.214Z,70.32
2023-03-06T11:46:37.657Z,70.89
2023-03-06T11:49:18.803Z,68.37
2023-03-06T11:51:52.832Z,69.42
2023-03-06T11:54:20.922Z,69.80
2023-03-06T11:56:56.347Z,69.36
2023-03-06T11:59:35.586Z,68.43
2023-03-06T12:02:14.367Z,69.33
2023-03-06T12:04:52.840Z,69.60
2023-03-06T12:07:30.645Z,69.86
2023-03-06T12:10:07.194Z,70.38
2023-03-06T12:13:04.113Z,72.37
2023-03-06T12:15:46.926Z,73.79
2023-03-06T12:18:38.948Z,75.23
2023-03-06T12:21:13.870Z,76.12
2023-03-06T12:23:55.002Z,75.93
2023-03-06T12:26:45.239Z,77.99
2023-03-06T12:29:43.701Z,77.40
2023-03-06T12:32:26.736Z,77.94
2023-03-06T12:35:15.408Z,76.84
2023-03-06T12:37:57.916Z,76.48
2023-03-06T12:40:51.686Z,76.18
2023-03-06T12:43:53.326Z,73.56
2023-03-06T12:46:24.155Z,75.33
2023-03-06T12:49:03.902Z,75.00
2023-03-06T12:51:33.462Z,75.25
2023-03-06T12:54:03.164Z,76.34
2023-03-06T12:56:34.085Z,76.76
2023-03-06T12:59:03.116Z,76.72
2023-03-06T13:01:55.362Z,77.13
2023-03-06T13:04:47.940Z,77.97
2023-03-06T13:07:38.867Z,79.59
2023-03-06T13:10:12.151Z,80.92
2023-03-06T13:12:49.884Z,82.81
2023-03-06T13:15:39.287Z,83.46
2023-03-06T13:18:43.714Z,84.30
2023-03-06T13:21:45.072Z,84.06
2023-03-06T13:24:23.246Z,85.07
2023-03-06T13:26:57.763Z,84.39
2023-03-06T13:30:02.796Z,84.99
2023-03-06T13:32:34.747Z,85.46
2023-03-06T13:35:03.409Z,85.54
2023-03-06T13:37:39.427Z,85.80
2023-03-06T13:40:28.675Z,84.65
2023-03-06T13:43:13.924Z,84.82
2023-03-06T13:45:43.859Z,84.71
2023-03-06T13:48:43.006Z,83.87
2023-03-06T13:51:23.968Z,84.51
2023-03-06T13:54:31.939Z,82.98
2023-03-06T13:57:34.113Z,84.25
2023-03-06T14:00:28.019Z,80.64
2023-03-06T14:03:15.658Z,83.16
2023-03-06T14:05:44.861Z,82.30
2023-03-06T14:08:16.453Z,82.20
2023-03-06T14:10:46.141Z,81.18
2023-03-06T14:13:25.499Z,83.15
2023-03-06T14:15:56.470Z,82.78
2023-03-06T14:18:47.913Z,81.10
2023-03-06T14:21:27.740Z,81.47
2023-03-06T14:24:00.671Z,81.43
2023-03-06T14:26:32.989Z,81.81
2023-03-06T14:29:04.139Z,81.52
2023-03-06T14:31:34.690Z,80.68
2023-03-06T14:34:05.217Z,78.75
2023-03-06T14:36:36.972Z,79.22
2023-03-06T14:39:13.820Z,77.29
2023-03-06T14:41:42.184Z,78.18
2023-03-06T14:44:18.054Z,78.93
2023-03-06T14:46:46.793Z,78.29
2023-03-06T14:49:15.939Z,77.80
2023-03-06T14:51:46.446Z,78.50
2023-03-06T14:54:19.643Z,79.51
2023-03-06T14:56:49.768Z,80.02
2023-03-06T14:59:25.914Z,78.93
2023-03-06T15:02:00.545Z,80.19
2023-03-06T15:04:36.664Z,80.61
2023-03-06T15:07:08.580Z,81.88
2023-03-06T15:09:38.958Z,82.08
2023-03-06T15:12:09.226Z,82.79
2023-03-06T15:14:41.968Z,83.82
2023-03-06T15:17:23.720Z,84.19
2023-03-06T15:19:54.569Z,85.00
2023-03-06T15:22:32.414Z,86.08
2023-03-06T15:25:30.250Z,86.15
2023-03-06T15:28:01.264Z,85.48
2023-03-06T15:30:32.527Z,86.11
2023-03-06T15:33:11.383Z,85.58
2023-03-06T15:35:39.860Z,84.88
2023-03-06T15:38:25.468Z,85.66
2023-03-06T15:40:58.468Z,85.34
2023-03-06T15:43:27.205Z,85.83
2023-03-06T15:46:00.055Z,84.98
2023-03-06T15:48:28.970Z,84.94
2023-03-06T15:50:57.190Z,84.91
2023-03-06T15:53:25.477Z,85.45
2023-03-06T15:55:54.261Z,85.85
2023-03-06T15:58:26.758Z,85.67
2023-03-06T16:00:57.386Z,85.92
2023-03-06T16:03:25.788Z,86.21
2023-03-06T16:05:53.819Z,86.80
2023-03-06T16:08:22.090Z,87.05
2023-03-06T16:10:51.505Z,87.28
2023-03-06T16:13:26.779Z,87.32
2023-03-06T16:15:56.977Z,86.73
2023-03-06T16:18:25.824Z,86.91
2023-03-06T16:20:54.151Z,87.12
2023-03-06T16:23:22.820Z,87.00
2023-03-06T16:25:53.394Z,86.98
2023-03-06T16:28:21.707Z,86.22
2023-03-06T16:30:50.091Z,86.88
2023-03-06T16:33:19.788Z,87.13
2023-03-06T16:35:48.359Z,87.14
2023-03-06T16:38:17.615Z,87.17
2023-03-06T16:40:45.848Z,87.71
2023-03-06T16:43:16.261Z,87.87
2023-03-06T16:45:44.960Z,88.12
2023-03-06T16:48:17.272Z,88.31
2023-03-06T16:50:47.368Z,88.42
2023-03-06T16:53:16.135Z,88.47
2023-03-06T16:55:44.813Z,88.97
2023-03-06T16:58:13.447Z,88.97
2023-03-06T17:00:41.697Z,89.01
2023-03-06T17:03:10.195Z,89.26
2023-03-06T17:05:39.363Z,89.53
2023-03-06T17:08:09.034Z,89.69
2023-03-06T17:10:39.961Z,90.05
2023-03-06T17:13:08.618Z,89.75
2023-03-06T17:15:36.749Z,89.91
2023-03-06T17:18:05.235Z,89.87
2023-03-06T17:20:33.456Z,89.88
2023-03-06T17:23:01.630Z,90.07
2023-03-06T17:25:31.544Z,89.83
2023-03-06T17:27:59.603Z,89.35
2023-03-06T17:30:28.098Z,89.05
2023-03-06T17:32:57.973Z,89.08
2023-03-06T17:35:26.002Z,89.12
2023-03-06T17:37:54.213Z,88.69
2023-03-06T17:40:49.428Z,89.19
2023-03-06T17:43:17.635Z,88.80
2023-03-06T17:45:47.423Z,88.97
2023-03-06T17:48:15.801Z,88.89
2023-03-06T17:50:45.922Z,89.13
2023-03-06T17:53:25.026Z,89.64
2023-03-06T17:55:54.861Z,90.40
2023-03-06T17:58:22.964Z,91.19
2023-03-06T18:00:51.334Z,91.81
2023-03-06T18:03:19.572Z,92.77
2023-03-06T18:05:48.003Z,93.54
2023-03-06T18:08:15.995Z,93.82
2023-03-06T18:10:44.681Z,93.66
2023-03-06T18:13:14.141Z,93.62
2023-03-06T18:15:43.103Z,93.49
2023-03-06T18:18:11.363Z,93.44
2023-03-06T18:20:42.210Z,93.60
2023-03-06T18:23:10.587Z,93.83
2023-03-06T18:25:38.654Z,93.93
2023-03-06T18:28:06.838Z,93.80
2023-03-06T18:30:39.120Z,93.46
2023-03-06T18:33:07.296Z,92.84
2023-03-06T18:35:36.080Z,92.21
2023-03-06T18:38:04.365Z,91.73
2023-03-06T18:40:32.736Z,91.19
2023-03-06T18:43:00.712Z,90.82
2023-03-06T18:45:28.824Z,90.92
2023-03-06T18:47:58.361Z,91.23
2023-03-06T18:50:26.379Z,91.41
2023-03-06T18:52:54.902Z,91.23
2023-03-06T18:55:23.196Z,91.33
2023-03-06T18:57:51.474Z,90.99
2023-03-06T19:00:20.840Z,91.11
2023-03-06T19:02:49.005Z,90.79
2023-03-06T19:05:18.637Z,90.74
2023-03-06T19:07:46.950Z,90.83
2023-03-06T19:10:15.725Z,90.75
2023-03-06T19:12:43.789Z,90.71
2023-03-06T19:15:12.012Z,91.24
2023-03-06T19:17:40.338Z,91.16
2023-03-06T19:20:09.742Z,91.26
2023-03-06T19:22:39.413Z,91.36
2023-03-06T19:25:09.041Z,91.55
2023-03-06T19:27:39.575Z,91.48
2023-03-06T19:30:09.450Z,91.80
2023-03-06T19:32:37.837Z,91.48
2023-03-06T19:35:06.979Z,91.58
2023-03-06T19:37:35.303Z,91.85
2023-03-06T19:40:04.875Z,91.73
2023-03-06T19:42:33.112Z,91.77
2023-03-06T19:45:01.531Z,91.94
2023-03-06T19:47:29.466Z,91.97
2023-03-06T19:49:57.712Z,92.04
2023-03-06T19:52:26.172Z,91.90
2023-03-06T19:54:54.579Z,91.84
2023-03-06T19:57:24.004Z,91.99
2023-03-06T19:59:52.613Z,92.14
2023-03-06T20:02:26.501Z,92.13
2023-03-06T20:04:55.535Z,92.29
2023-03-06T20:07:24.009Z,92.29
2023-03-06T20:09:52.394Z,92.13
2023-03-06T20:12:20.423Z,92.10
2023-03-06T20:14:50.926Z,91.90
2023-03-06T20:17:18.921Z,92.19
2023-03-06T20:19:47.579Z,92.29
2023-03-06T20:22:15.677Z,92.17
2023-03-06T20:24:43.633Z,92.13
2023-03-06T20:27:11.933Z,92.59
2023-03-06T20:29:43.408Z,92.82
2023-03-06T20:32:14.463Z,92.35
2023-03-06T20:34:42.640Z,92.36
2023-03-06T20:37:11.390Z,92.64
2023-03-06T20:39:39.439Z,92.64
2023-03-06T20:42:07.461Z,92.69
2023-03-06T20:44:36.232Z,92.84
2023-03-06T20:47:04.322Z,92.63
2023-03-06T20:49:33.878Z,92.43
2023-03-06T20:52:02.044Z,92.37
2023-03-06T20:54:30.265Z,92.66
2023-03-06T20:56:58.323Z,92.59
2023-03-06T20:59:26.700Z,92.62
2023-03-06T21:01:54.931Z,92.84
2023-03-06T21:04:23.201Z,92.38
2023-03-06T21:06:54.758Z,92.43
2023-03-06T21:09:23.055Z,92.32
2023-03-06T21:11:51.951Z,92.38
2023-03-06T21:14:19.933Z,92.74
2023-03-06T21:16:47.929Z,92.48
2023-03-06T21:19:15.958Z,92.64
2023-03-06T21:21:43.954Z,92.41
2023-03-06T21:24:13.439Z,92.53
2023-03-06T21:26:41.503Z,92.77
2023-03-06T21:29:09.955Z,92.75
2023-03-06T21:31:38.743Z,92.94
2023-03-06T21:34:07.060Z,92.94
2023-03-06T21:36:35.109Z,92.46
2023-03-06T21:39:06.242Z,92.74
2023-03-06T21:41:37.978Z,92.57
2023-03-06T21:44:07.765Z,92.59
2023-03-06T21:46:36.452Z,92.35
2023-03-06T21:49:06.001Z,92.16
2023-03-06T21:51:34.575Z,92.03
2023-03-06T21:54:03.864Z,91.91
2023-03-06T21:56:33.403Z,91.97
2023-03-06T21:59:03.311Z,91.73
2023-03-06T22:01:31.669Z,91.60
2023-03-06T22:04:00.964Z,91.32
2023-03-06T22:06:31.363Z,91.67
2023-03-06T22:09:00.838Z,91.99
2023-03-06T22:11:31.418Z,91.85
2023-03-06T22:13:59.752Z,91.94
2023-03-06T22:16:29.533Z,91.58
2023-03-06T22:18:57.741Z,91.43
2023-03-06T22:21:26.462Z,91.54
2023-03-06T22:23:57.366Z,91.68
2023-03-06T22:26:26.847Z,91.47
2023-03-06T22:28:55.098Z,91.45
2023-03-06T22:31:24.863Z,91.12
2023-03-06T22:33:55.522Z,90.82
2023-03-06T22:36:25.021Z,90.61
2023-03-06T22:38:56.364Z,90.25
2023-03-06T22:41:50.212Z,89.76
2023-03-06T22:44:20.760Z,89.89
2023-03-06T22:46:48.961Z,89.92
2023-03-06T22:49:19.117Z,89.49
2023-03-06T22:51:47.411Z,89.58
2023-03-06T22:54:15.554Z,89.88
2023-03-06T22:56:43.623Z,89.85
2023-03-06T22:59:12.344Z,89.91
2023-03-06T23:01:40.609Z,89.13
2023-03-06T23:04:11.447Z,89.09
2023-03-06T23:06:43.085Z,88.69
2023-03-06T23:09:16.006Z,88.41
2023-03-06T23:12:03.206Z,88.30
2023-03-06T23:14:51.652Z,88.74
2023-03-06T23:17:38.282Z,88.14
2023-03-06T23:20:24.876Z,88.37
2023-03-06T23:23:12.891Z,88.37
2023-03-06T23:25:43.956Z,88.38
2023-03-06T23:28:12.530Z,88.15
2023-03-06T23:30:40.953Z,88.44
2023-03-06T23:33:09.979Z,88.76
2023-03-06T23:35:39.747Z,88.67
2023-03-06T23:38:07.826Z,88.98
2023-03-06T23:40:39.721Z,89.01
2023-03-06T23:43:07.754Z,89.11
2023-03-06T23:45:35.949Z,88.67
2023-03-06T23:48:06.134Z,88.77
2023-03-06T23:50:34.232Z,88.98
2023-03-06T23:53:02.324Z,89.00
2023-03-06T23:55:30.242Z,89.43
2023-03-06T23:57:59.611Z,89.44
